sensor_id;sensor_type;location;lat;lon;timestamp;temperature;humidity
74901;DHT22;63461;51.416;6.758;2023-06-22T00:01:43;22.40;99.90
74901;DHT22;63461;51.416;6.758;2023-06-22T00:04:08;22.50;99.90
74901;DHT22;63461;51.416;6.758;2023-06-22T00:06:34;22.50;99.90
74901;DHT22;63461;51.416;6.758;2023-06-22T00:09:00;22.50;99.90
74901;DHT22;63461;51.416;6.758;2023-06-22T00:11:26;22.40;99.90
74901;DHT22;63461;51.416;6.758;2023-06-22T00:13:51;22.40;99.90
74901;DHT22;63461;51.416;6.758;2023-06-22T00:16:17;22.40;99.90
74901;DHT22;63461;51.416;6.758;2023-06-22T00:18:43;22.30;99.90
74901;DHT22;63461;51.416;6.758;2023-06-22T00:21:13;22.30;99.90
74901;DHT22;63461;51.416;6.758;2023-06-22T00:23:38;22.30;99.90
74901;DHT22;63461;51.416;6.758;2023-06-22T00:26:04;22.40;99.90
74901;DHT22;63461;51.416;6.758;2023-06-22T00:28:30;22.40;99.90
74901;DHT22;63461;51.416;6.758;2023-06-22T00:30:56;22.40;99.90
74901;DHT22;63461;51.416;6.758;2023-06-22T00:33:22;22.40;99.90
74901;DHT22;63461;51.416;6.758;2023-06-22T00:35:47;22.30;99.90
74901;DHT22;63461;51.416;6.758;2023-06-22T00:38:13;22.30;99.90
74901;DHT22;63461;51.416;6.758;2023-06-22T00:40:41;22.30;99.90
74901;DHT22;63461;51.416;6.758;2023-06-22T00:43:07;22.20;99.90
74901;DHT22;63461;51.416;6.758;2023-06-22T00:45:33;22.20;99.90
74901;DHT22;63461;51.416;6.758;2023-06-22T00:47:59;22.20;99.90
74901;DHT22;63461;51.416;6.758;2023-06-22T00:50:27;22.20;99.90
74901;DHT22;63461;51.416;6.758;2023-06-22T00:52:59;22.10;99.90
74901;DHT22;63461;51.416;6.758;2023-06-22T00:55:25;22.10;99.90
74901;DHT22;63461;51.416;6.758;2023-06-22T00:57:52;22.10;99.90
74901;DHT22;63461;51.416;6.758;2023-06-22T01:00:22;22.00;99.90
74901;DHT22;63461;51.416;6.758;2023-06-22T01:02:50;22.10;99.90
74901;DHT22;63461;51.416;6.758;2023-06-22T01:05:21;22.00;99.90
74901;DHT22;63461;51.416;6.758;2023-06-22T01:08:08;22.00;99.90
74901;DHT22;63461;51.416;6.758;2023-06-22T01:10:47;21.90;99.90
74901;DHT22;63461;51.416;6.758;2023-06-22T01:16:29;21.90;99.90
74901;DHT22;63461;51.416;6.758;2023-06-22T01:18:59;21.80;99.90
74901;DHT22;63461;51.416;6.758;2023-06-22T01:21:29;21.90;99.90
74901;DHT22;63461;51.416;6.758;2023-06-22T01:24:23;21.90;99.90
74901;DHT22;63461;51.416;6.758;2023-06-22T01:29:24;21.80;99.90
74901;DHT22;63461;51.416;6.758;2023-06-22T01:31:53;21.90;99.90
74901;DHT22;63461;51.416;6.758;2023-06-22T01:34:20;21.90;99.90
74901;DHT22;63461;51.416;6.758;2023-06-22T01:36:47;21.80;99.90
74901;DHT22;63461;51.416;6.758;2023-06-22T01:39:13;21.80;99.90
74901;DHT22;63461;51.416;6.758;2023-06-22T01:41:40;21.80;99.90
74901;DHT22;63461;51.416;6.758;2023-06-22T01:44:08;21.80;99.90
74901;DHT22;63461;51.416;6.758;2023-06-22T01:46:35;21.70;99.90
74901;DHT22;63461;51.416;6.758;2023-06-22T01:49:02;21.70;99.90
74901;DHT22;63461;51.416;6.758;2023-06-22T01:51:29;21.70;99.90
74901;DHT22;63461;51.416;6.758;2023-06-22T01:53:58;21.70;99.90
74901;DHT22;63461;51.416;6.758;2023-06-22T01:56:26;21.80;99.90
74901;DHT22;63461;51.416;6.758;2023-06-22T01:59:25;21.80;99.90
74901;DHT22;63461;51.416;6.758;2023-06-22T02:02:04;21.60;99.90
74901;DHT22;63461;51.416;6.758;2023-06-22T02:04:37;21.70;99.90
74901;DHT22;63461;51.416;6.758;2023-06-22T02:07:10;21.70;99.90
74901;DHT22;63461;51.416;6.758;2023-06-22T02:09:38;21.70;99.90
74901;DHT22;63461;51.416;6.758;2023-06-22T02:12:08;21.60;99.90
74901;DHT22;63461;51.416;6.758;2023-06-22T02:14:36;21.60;99.90
74901;DHT22;63461;51.416;6.758;2023-06-22T02:17:04;21.60;99.90
74901;DHT22;63461;51.416;6.758;2023-06-22T02:19:36;21.60;99.90
74901;DHT22;63461;51.416;6.758;2023-06-22T02:22:03;21.60;99.90
74901;DHT22;63461;51.416;6.758;2023-06-22T02:24:29;21.60;99.90
74901;DHT22;63461;51.416;6.758;2023-06-22T02:26:58;21.60;99.90
74901;DHT22;63461;51.416;6.758;2023-06-22T02:29:24;21.60;99.90
74901;DHT22;63461;51.416;6.758;2023-06-22T02:31:49;21.50;99.90
74901;DHT22;63461;51.416;6.758;2023-06-22T02:34:15;21.50;99.90
74901;DHT22;63461;51.416;6.758;2023-06-22T02:36:48;21.60;99.90
74901;DHT22;63461;51.416;6.758;2023-06-22T02:39:21;21.50;99.90
74901;DHT22;63461;51.416;6.758;2023-06-22T02:41:53;21.50;99.90
74901;DHT22;63461;51.416;6.758;2023-06-22T02:44:19;21.50;99.90
74901;DHT22;63461;51.416;6.758;2023-06-22T02:46:47;21.40;99.90
74901;DHT22;63461;51.416;6.758;2023-06-22T02:49:14;21.40;99.90
74901;DHT22;63461;51.416;6.758;2023-06-22T02:51:44;21.40;99.90
74901;DHT22;63461;51.416;6.758;2023-06-22T02:54:10;21.40;99.90
74901;DHT22;63461;51.416;6.758;2023-06-22T02:56:36;21.40;99.90
74901;DHT22;63461;51.416;6.758;2023-06-22T02:59:03;21.40;99.90
74901;DHT22;63461;51.416;6.758;2023-06-22T03:01:35;21.30;99.90
74901;DHT22;63461;51.416;6.758;2023-06-22T03:04:08;21.30;99.90
74901;DHT22;63461;51.416;6.758;2023-06-22T03:06:35;21.30;99.90
74901;DHT22;63461;51.416;6.758;2023-06-22T03:09:04;21.20;99.90
74901;DHT22;63461;51.416;6.758;2023-06-22T03:11:31;21.30;99.90
74901;DHT22;63461;51.416;6.758;2023-06-22T03:13:58;21.20;99.90
74901;DHT22;63461;51.416;6.758;2023-06-22T03:16:25;21.20;99.90
74901;DHT22;63461;51.416;6.758;2023-06-22T03:18:52;21.30;99.90
74901;DHT22;63461;51.416;6.758;2023-06-22T03:21:21;21.20;99.90
74901;DHT22;63461;51.416;6.758;2023-06-22T03:23:47;21.20;99.90
74901;DHT22;63461;51.416;6.758;2023-06-22T03:26:17;21.20;99.90
74901;DHT22;63461;51.416;6.758;2023-06-22T03:28:43;21.20;99.90
74901;DHT22;63461;51.416;6.758;2023-06-22T03:31:09;21.20;99.90
74901;DHT22;63461;51.416;6.758;2023-06-22T03:33:37;21.20;99.90
74901;DHT22;63461;51.416;6.758;2023-06-22T03:36:03;21.10;99.90
74901;DHT22;63461;51.416;6.758;2023-06-22T03:38:29;21.10;99.90
74901;DHT22;63461;51.416;6.758;2023-06-22T03:40:56;21.10;99.90
74901;DHT22;63461;51.416;6.758;2023-06-22T03:43:23;21.10;99.90
74901;DHT22;63461;51.416;6.758;2023-06-22T03:45:49;21.00;99.90
74901;DHT22;63461;51.416;6.758;2023-06-22T03:48:14;21.00;99.90
74901;DHT22;63461;51.416;6.758;2023-06-22T03:50:40;21.00;99.90
74901;DHT22;63461;51.416;6.758;2023-06-22T03:53:06;21.00;99.90
74901;DHT22;63461;51.416;6.758;2023-06-22T03:55:34;20.90;99.90
74901;DHT22;63461;51.416;6.758;2023-06-22T03:57:59;21.00;99.90
74901;DHT22;63461;51.416;6.758;2023-06-22T04:00:31;21.00;99.90
74901;DHT22;63461;51.416;6.758;2023-06-22T04:02:57;21.00;99.90
74901;DHT22;63461;51.416;6.758;2023-06-22T04:05:23;21.10;99.90
74901;DHT22;63461;51.416;6.758;2023-06-22T04:07:49;21.10;99.90
74901;DHT22;63461;51.416;6.758;2023-06-22T04:10:15;21.10;99.90
74901;DHT22;63461;51.416;6.758;2023-06-22T04:12:41;21.20;99.90
74901;DHT22;63461;51.416;6.758;2023-06-22T04:15:07;21.20;99.90
74901;DHT22;63461;51.416;6.758;2023-06-22T04:17:33;21.20;99.90
74901;DHT22;63461;51.416;6.758;2023-06-22T04:19:59;21.20;99.90
74901;DHT22;63461;51.416;6.758;2023-06-22T04:22:24;21.30;99.90
74901;DHT22;63461;51.416;6.758;2023-06-22T04:24:50;21.30;99.90
74901;DHT22;63461;51.416;6.758;2023-06-22T04:27:17;21.40;99.90
74901;DHT22;63461;51.416;6.758;2023-06-22T04:29:44;21.30;99.90
74901;DHT22;63461;51.416;6.758;2023-06-22T04:32:17;21.40;99.90
74901;DHT22;63461;51.416;6.758;2023-06-22T04:34:43;21.40;99.90
74901;DHT22;63461;51.416;6.758;2023-06-22T04:37:09;21.30;99.90
74901;DHT22;63461;51.416;6.758;2023-06-22T04:39:42;21.40;99.90
74901;DHT22;63461;51.416;6.758;2023-06-22T04:42:08;21.40;99.90
74901;DHT22;63461;51.416;6.758;2023-06-22T04:44:34;21.30;99.90
74901;DHT22;63461;51.416;6.758;2023-06-22T04:47:02;21.40;99.90
74901;DHT22;63461;51.416;6.758;2023-06-22T04:49:34;21.40;99.90
74901;DHT22;63461;51.416;6.758;2023-06-22T04:52:06;21.40;99.90
74901;DHT22;63461;51.416;6.758;2023-06-22T04:54:33;21.50;99.90
74901;DHT22;63461;51.416;6.758;2023-06-22T04:57:03;21.40;99.90
74901;DHT22;63461;51.416;6.758;2023-06-22T04:59:31;21.40;99.90
74901;DHT22;63461;51.416;6.758;2023-06-22T05:01:57;21.40;99.90
74901;DHT22;63461;51.416;6.758;2023-06-22T05:04:24;21.30;99.90
74901;DHT22;63461;51.416;6.758;2023-06-22T05:06:51;21.30;99.90
74901;DHT22;63461;51.416;6.758;2023-06-22T05:09:17;21.30;99.90
74901;DHT22;63461;51.416;6.758;2023-06-22T05:11:44;21.40;99.90
74901;DHT22;63461;51.416;6.758;2023-06-22T05:14:11;21.40;99.90
74901;DHT22;63461;51.416;6.758;2023-06-22T05:16:37;21.40;99.90
74901;DHT22;63461;51.416;6.758;2023-06-22T05:19:04;21.40;99.90
74901;DHT22;63461;51.416;6.758;2023-06-22T05:21:30;21.40;99.90
74901;DHT22;63461;51.416;6.758;2023-06-22T05:23:57;21.40;99.90
74901;DHT22;63461;51.416;6.758;2023-06-22T05:26:26;21.30;99.90
74901;DHT22;63461;51.416;6.758;2023-06-22T05:28:53;21.30;99.90
74901;DHT22;63461;51.416;6.758;2023-06-22T05:31:19;21.40;99.90
74901;DHT22;63461;51.416;6.758;2023-06-22T05:33:46;21.40;99.90
74901;DHT22;63461;51.416;6.758;2023-06-22T05:36:12;21.40;99.90
74901;DHT22;63461;51.416;6.758;2023-06-22T05:38:39;21.40;99.90
74901;DHT22;63461;51.416;6.758;2023-06-22T05:41:05;21.40;99.90
74901;DHT22;63461;51.416;6.758;2023-06-22T05:43:31;21.40;99.90
74901;DHT22;63461;51.416;6.758;2023-06-22T05:45:57;21.40;99.90
74901;DHT22;63461;51.416;6.758;2023-06-22T05:48:22;21.40;99.90
74901;DHT22;63461;51.416;6.758;2023-06-22T05:50:48;21.40;99.90
74901;DHT22;63461;51.416;6.758;2023-06-22T05:53:14;21.40;99.90
74901;DHT22;63461;51.416;6.758;2023-06-22T05:55:43;21.40;99.90
74901;DHT22;63461;51.416;6.758;2023-06-22T05:58:09;21.40;99.90
74901;DHT22;63461;51.416;6.758;2023-06-22T06:00:35;21.40;99.90
74901;DHT22;63461;51.416;6.758;2023-06-22T06:03:01;21.40;99.90
74901;DHT22;63461;51.416;6.758;2023-06-22T06:05:33;21.30;99.90
74901;DHT22;63461;51.416;6.758;2023-06-22T06:08:00;21.40;99.90
74901;DHT22;63461;51.416;6.758;2023-06-22T06:10:26;21.40;99.90
74901;DHT22;63461;51.416;6.758;2023-06-22T06:12:53;21.40;99.90
74901;DHT22;63461;51.416;6.758;2023-06-22T06:15:18;21.40;99.90
74901;DHT22;63461;51.416;6.758;2023-06-22T06:17:48;21.40;99.90
74901;DHT22;63461;51.416;6.758;2023-06-22T06:20:15;21.30;99.90
74901;DHT22;63461;51.416;6.758;2023-06-22T06:22:41;21.30;99.90
74901;DHT22;63461;51.416;6.758;2023-06-22T06:25:08;21.30;99.90
74901;DHT22;63461;51.416;6.758;2023-06-22T06:27:34;21.30;99.90
74901;DHT22;63461;51.416;6.758;2023-06-22T06:30:00;21.20;99.90
74901;DHT22;63461;51.416;6.758;2023-06-22T06:32:25;21.20;99.90
74901;DHT22;63461;51.416;6.758;2023-06-22T06:34:51;21.20;99.90
74901;DHT22;63461;51.416;6.758;2023-06-22T06:37:17;21.20;99.90
74901;DHT22;63461;51.416;6.758;2023-06-22T06:39:44;21.10;99.90
74901;DHT22;63461;51.416;6.758;2023-06-22T06:42:10;21.10;99.90
74901;DHT22;63461;51.416;6.758;2023-06-22T06:44:36;21.10;99.90
74901;DHT22;63461;51.416;6.758;2023-06-22T06:47:04;21.20;99.90
74901;DHT22;63461;51.416;6.758;2023-06-22T06:49:30;21.20;99.90
74901;DHT22;63461;51.416;6.758;2023-06-22T06:51:55;21.20;99.90
74901;DHT22;63461;51.416;6.758;2023-06-22T06:54:21;21.20;99.90
74901;DHT22;63461;51.416;6.758;2023-06-22T06:56:47;21.20;99.90
74901;DHT22;63461;51.416;6.758;2023-06-22T06:59:14;21.20;99.90
74901;DHT22;63461;51.416;6.758;2023-06-22T07:01:41;21.30;99.90
74901;DHT22;63461;51.416;6.758;2023-06-22T07:04:07;21.50;99.90
74901;DHT22;63461;51.416;6.758;2023-06-22T07:06:33;21.40;99.90
74901;DHT22;63461;51.416;6.758;2023-06-22T07:08:59;21.50;99.90
74901;DHT22;63461;51.416;6.758;2023-06-22T07:11:27;21.60;99.90
74901;DHT22;63461;51.416;6.758;2023-06-22T07:13:53;21.60;99.90
74901;DHT22;63461;51.416;6.758;2023-06-22T07:16:19;21.70;99.90
74901;DHT22;63461;51.416;6.758;2023-06-22T07:18:44;21.70;99.90
74901;DHT22;63461;51.416;6.758;2023-06-22T07:21:10;21.70;99.90
74901;DHT22;63461;51.416;6.758;2023-06-22T07:23:36;21.70;99.90
74901;DHT22;63461;51.416;6.758;2023-06-22T07:26:02;21.60;99.90
74901;DHT22;63461;51.416;6.758;2023-06-22T07:28:28;21.70;99.90
74901;DHT22;63461;51.416;6.758;2023-06-22T07:30:57;21.80;99.90
74901;DHT22;63461;51.416;6.758;2023-06-22T07:33:22;21.90;99.90
74901;DHT22;63461;51.416;6.758;2023-06-22T07:35:48;22.00;99.90
74901;DHT22;63461;51.416;6.758;2023-06-22T07:38:16;22.10;99.90
74901;DHT22;63461;51.416;6.758;2023-06-22T07:40:42;22.00;99.90
74901;DHT22;63461;51.416;6.758;2023-06-22T07:43:08;22.00;99.90
74901;DHT22;63461;51.416;6.758;2023-06-22T07:45:33;22.00;99.90
74901;DHT22;63461;51.416;6.758;2023-06-22T07:48:01;22.00;99.90
74901;DHT22;63461;51.416;6.758;2023-06-22T07:50:27;22.00;99.90
74901;DHT22;63461;51.416;6.758;2023-06-22T07:52:52;21.90;99.90
74901;DHT22;63461;51.416;6.758;2023-06-22T07:55:18;21.90;99.90
74901;DHT22;63461;51.416;6.758;2023-06-22T07:57:48;21.90;99.90
74901;DHT22;63461;51.416;6.758;2023-06-22T08:00:14;21.80;99.90
74901;DHT22;63461;51.416;6.758;2023-06-22T08:02:44;21.80;99.90
74901;DHT22;63461;51.416;6.758;2023-06-22T08:05:10;21.80;99.90
74901;DHT22;63461;51.416;6.758;2023-06-22T08:07:36;21.80;99.90
74901;DHT22;63461;51.416;6.758;2023-06-22T08:10:04;21.80;99.90
74901;DHT22;63461;51.416;6.758;2023-06-22T08:12:30;21.70;99.90
74901;DHT22;63461;51.416;6.758;2023-06-22T08:14:56;21.70;99.90
74901;DHT22;63461;51.416;6.758;2023-06-22T08:17:23;21.80;99.90
74901;DHT22;63461;51.416;6.758;2023-06-22T08:19:49;21.90;99.90
74901;DHT22;63461;51.416;6.758;2023-06-22T08:22:16;21.90;99.90
74901;DHT22;63461;51.416;6.758;2023-06-22T08:24:42;21.90;99.90
74901;DHT22;63461;51.416;6.758;2023-06-22T08:27:09;22.00;99.90
74901;DHT22;63461;51.416;6.758;2023-06-22T08:29:37;22.10;99.90
74901;DHT22;63461;51.416;6.758;2023-06-22T08:32:03;22.10;99.90
74901;DHT22;63461;51.416;6.758;2023-06-22T08:34:29;22.00;99.90
74901;DHT22;63461;51.416;6.758;2023-06-22T08:36:55;22.00;99.90
74901;DHT22;63461;51.416;6.758;2023-06-22T08:39:21;22.20;99.90
74901;DHT22;63461;51.416;6.758;2023-06-22T08:41:48;22.20;99.90
74901;DHT22;63461;51.416;6.758;2023-06-22T08:44:15;22.20;99.90
74901;DHT22;63461;51.416;6.758;2023-06-22T08:46:40;22.30;99.90
74901;DHT22;63461;51.416;6.758;2023-06-22T08:49:07;22.30;99.90
74901;DHT22;63461;51.416;6.758;2023-06-22T08:51:33;22.20;99.90
74901;DHT22;63461;51.416;6.758;2023-06-22T08:53:59;22.20;99.90
74901;DHT22;63461;51.416;6.758;2023-06-22T08:56:25;22.30;99.90
74901;DHT22;63461;51.416;6.758;2023-06-22T08:58:51;22.30;99.90
74901;DHT22;63461;51.416;6.758;2023-06-22T09:01:16;22.40;99.90
74901;DHT22;63461;51.416;6.758;2023-06-22T09:03:42;22.60;99.90
74901;DHT22;63461;51.416;6.758;2023-06-22T09:06:08;22.50;99.90
74901;DHT22;63461;51.416;6.758;2023-06-22T09:08:39;22.50;99.90
74901;DHT22;63461;51.416;6.758;2023-06-22T09:11:04;22.60;99.90
74901;DHT22;63461;51.416;6.758;2023-06-22T09:13:31;22.60;99.90
74901;DHT22;63461;51.416;6.758;2023-06-22T09:15:57;22.70;99.90
74901;DHT22;63461;51.416;6.758;2023-06-22T09:18:23;22.60;99.90
74901;DHT22;63461;51.416;6.758;2023-06-22T09:20:49;22.80;99.90
74901;DHT22;63461;51.416;6.758;2023-06-22T09:23:15;22.90;99.90
74901;DHT22;63461;51.416;6.758;2023-06-22T09:25:41;23.10;99.90
74901;DHT22;63461;51.416;6.758;2023-06-22T09:28:06;23.20;99.90
74901;DHT22;63461;51.416;6.758;2023-06-22T09:30:32;23.20;99.90
74901;DHT22;63461;51.416;6.758;2023-06-22T09:32:58;23.30;99.90
74901;DHT22;63461;51.416;6.758;2023-06-22T09:35:24;23.50;99.90
74901;DHT22;63461;51.416;6.758;2023-06-22T09:37:50;23.70;99.90
74901;DHT22;63461;51.416;6.758;2023-06-22T09:40:15;23.80;99.90
74901;DHT22;63461;51.416;6.758;2023-06-22T09:42:42;23.80;99.90
74901;DHT22;63461;51.416;6.758;2023-06-22T09:45:08;23.90;99.90
74901;DHT22;63461;51.416;6.758;2023-06-22T09:47:34;23.90;99.90
74901;DHT22;63461;51.416;6.758;2023-06-22T09:50:00;23.90;99.90
74901;DHT22;63461;51.416;6.758;2023-06-22T09:52:26;24.00;99.90
74901;DHT22;63461;51.416;6.758;2023-06-22T09:54:52;24.20;99.90
74901;DHT22;63461;51.416;6.758;2023-06-22T09:57:18;24.20;99.90
74901;DHT22;63461;51.416;6.758;2023-06-22T09:59:43;24.30;99.90
74901;DHT22;63461;51.416;6.758;2023-06-22T10:02:09;24.40;99.90
74901;DHT22;63461;51.416;6.758;2023-06-22T10:04:35;24.50;99.90
74901;DHT22;63461;51.416;6.758;2023-06-22T10:07:02;24.80;99.90
74901;DHT22;63461;51.416;6.758;2023-06-22T10:09:28;24.80;99.90
74901;DHT22;63461;51.416;6.758;2023-06-22T10:11:54;24.70;99.90
74901;DHT22;63461;51.416;6.758;2023-06-22T10:14:20;24.80;99.90
74901;DHT22;63461;51.416;6.758;2023-06-22T10:16:45;25.00;99.90
74901;DHT22;63461;51.416;6.758;2023-06-22T10:19:11;24.90;99.90
74901;DHT22;63461;51.416;6.758;2023-06-22T10:21:37;24.90;99.90
74901;DHT22;63461;51.416;6.758;2023-06-22T10:24:03;25.10;99.90
74901;DHT22;63461;51.416;6.758;2023-06-22T10:26:32;25.30;99.90
74901;DHT22;63461;51.416;6.758;2023-06-22T10:28:59;25.50;99.90
74901;DHT22;63461;51.416;6.758;2023-06-22T10:31:25;25.60;99.90
74901;DHT22;63461;51.416;6.758;2023-06-22T10:33:53;25.60;99.90
74901;DHT22;63461;51.416;6.758;2023-06-22T10:36:19;25.50;99.90
74901;DHT22;63461;51.416;6.758;2023-06-22T10:38:45;25.50;99.90
74901;DHT22;63461;51.416;6.758;2023-06-22T10:41:12;25.40;99.90
74901;DHT22;63461;51.416;6.758;2023-06-22T10:43:38;25.50;99.90
74901;DHT22;63461;51.416;6.758;2023-06-22T10:46:04;25.50;99.90
74901;DHT22;63461;51.416;6.758;2023-06-22T10:48:30;25.50;99.90
74901;DHT22;63461;51.416;6.758;2023-06-22T10:50:56;25.30;99.90
74901;DHT22;63461;51.416;6.758;2023-06-22T10:53:21;25.30;99.90
74901;DHT22;63461;51.416;6.758;2023-06-22T10:55:47;25.20;99.90
74901;DHT22;63461;51.416;6.758;2023-06-22T10:58:13;25.00;99.90
74901;DHT22;63461;51.416;6.758;2023-06-22T11:00:39;25.00;99.90
74901;DHT22;63461;51.416;6.758;2023-06-22T11:03:05;24.90;99.90
74901;DHT22;63461;51.416;6.758;2023-06-22T11:05:31;24.90;99.90
74901;DHT22;63461;51.416;6.758;2023-06-22T11:07:58;24.80;99.90
74901;DHT22;63461;51.416;6.758;2023-06-22T11:10:24;24.80;99.90
74901;DHT22;63461;51.416;6.758;2023-06-22T11:12:50;24.80;99.90
74901;DHT22;63461;51.416;6.758;2023-06-22T11:15:16;24.70;99.90
74901;DHT22;63461;51.416;6.758;2023-06-22T11:17:41;24.70;99.90
74901;DHT22;63461;51.416;6.758;2023-06-22T11:20:08;24.60;99.90
74901;DHT22;63461;51.416;6.758;2023-06-22T11:22:38;24.60;99.90
74901;DHT22;63461;51.416;6.758;2023-06-22T11:25:05;24.50;99.90
74901;DHT22;63461;51.416;6.758;2023-06-22T11:27:31;24.50;99.90
74901;DHT22;63461;51.416;6.758;2023-06-22T11:29:57;24.40;99.90
74901;DHT22;63461;51.416;6.758;2023-06-22T11:32:23;24.30;99.90
74901;DHT22;63461;51.416;6.758;2023-06-22T11:34:49;24.20;99.90
74901;DHT22;63461;51.416;6.758;2023-06-22T11:37:15;24.20;99.90
74901;DHT22;63461;51.416;6.758;2023-06-22T11:39:44;24.00;99.90
74901;DHT22;63461;51.416;6.758;2023-06-22T11:42:10;23.90;99.90
74901;DHT22;63461;51.416;6.758;2023-06-22T11:44:36;23.80;99.90
74901;DHT22;63461;51.416;6.758;2023-06-22T11:47:02;23.60;99.90
74901;DHT22;63461;51.416;6.758;2023-06-22T11:49:30;23.60;99.90
74901;DHT22;63461;51.416;6.758;2023-06-22T11:51:56;23.40;99.90
74901;DHT22;63461;51.416;6.758;2023-06-22T11:54:21;23.30;99.90
74901;DHT22;63461;51.416;6.758;2023-06-22T11:56:47;23.30;99.90
74901;DHT22;63461;51.416;6.758;2023-06-22T11:59:13;23.40;99.90
74901;DHT22;63461;51.416;6.758;2023-06-22T12:01:39;23.40;99.90
74901;DHT22;63461;51.416;6.758;2023-06-22T12:04:05;23.10;99.90
74901;DHT22;63461;51.416;6.758;2023-06-22T12:06:37;23.10;99.90
74901;DHT22;63461;51.416;6.758;2023-06-22T12:09:04;23.00;99.90
74901;DHT22;63461;51.416;6.758;2023-06-22T12:11:32;23.10;99.90
74901;DHT22;63461;51.416;6.758;2023-06-22T12:13:58;23.00;99.90
74901;DHT22;63461;51.416;6.758;2023-06-22T12:16:28;23.10;99.90
74901;DHT22;63461;51.416;6.758;2023-06-22T12:18:54;23.10;99.90
74901;DHT22;63461;51.416;6.758;2023-06-22T12:21:19;23.20;99.90
74901;DHT22;63461;51.416;6.758;2023-06-22T12:23:45;23.10;99.90
74901;DHT22;63461;51.416;6.758;2023-06-22T12:26:11;23.20;99.90
74901;DHT22;63461;51.416;6.758;2023-06-22T12:28:37;23.40;99.90
74901;DHT22;63461;51.416;6.758;2023-06-22T12:31:02;23.50;99.90
74901;DHT22;63461;51.416;6.758;2023-06-22T12:33:28;23.70;99.90
74901;DHT22;63461;51.416;6.758;2023-06-22T12:35:56;23.80;99.90
74901;DHT22;63461;51.416;6.758;2023-06-22T12:38:22;23.90;99.90
74901;DHT22;63461;51.416;6.758;2023-06-22T12:40:48;23.80;99.90
74901;DHT22;63461;51.416;6.758;2023-06-22T12:43:15;24.00;99.90
74901;DHT22;63461;51.416;6.758;2023-06-22T12:45:40;24.00;99.90
74901;DHT22;63461;51.416;6.758;2023-06-22T12:48:06;24.10;99.90
74901;DHT22;63461;51.416;6.758;2023-06-22T12:50:32;24.10;99.90
74901;DHT22;63461;51.416;6.758;2023-06-22T12:52:58;23.90;99.90
74901;DHT22;63461;51.416;6.758;2023-06-22T12:55:23;23.80;99.90
74901;DHT22;63461;51.416;6.758;2023-06-22T12:57:49;23.90;99.90
74901;DHT22;63461;51.416;6.758;2023-06-22T13:00:15;24.10;99.90
74901;DHT22;63461;51.416;6.758;2023-06-22T13:02:42;23.90;99.90
74901;DHT22;63461;51.416;6.758;2023-06-22T13:05:11;23.90;99.90
74901;DHT22;63461;51.416;6.758;2023-06-22T13:07:37;23.90;99.90
74901;DHT22;63461;51.416;6.758;2023-06-22T13:10:03;23.80;99.90
74901;DHT22;63461;51.416;6.758;2023-06-22T13:12:30;23.60;99.90
74901;DHT22;63461;51.416;6.758;2023-06-22T13:14:55;23.60;99.90
74901;DHT22;63461;51.416;6.758;2023-06-22T13:17:21;23.50;99.90
74901;DHT22;63461;51.416;6.758;2023-06-22T13:19:47;23.50;99.90
74901;DHT22;63461;51.416;6.758;2023-06-22T13:22:30;23.60;99.90
74901;DHT22;63461;51.416;6.758;2023-06-22T13:24:57;23.60;99.90
74901;DHT22;63461;51.416;6.758;2023-06-22T13:27:23;23.50;99.90
74901;DHT22;63461;51.416;6.758;2023-06-22T13:29:49;23.60;99.90
74901;DHT22;63461;51.416;6.758;2023-06-22T13:32:15;23.50;99.90
74901;DHT22;63461;51.416;6.758;2023-06-22T13:34:41;23.40;99.90
74901;DHT22;63461;51.416;6.758;2023-06-22T13:37:07;23.50;99.90
74901;DHT22;63461;51.416;6.758;2023-06-22T13:39:33;23.50;99.90
74901;DHT22;63461;51.416;6.758;2023-06-22T13:41:58;23.50;99.90
74901;DHT22;63461;51.416;6.758;2023-06-22T13:44:24;23.50;99.90
74901;DHT22;63461;51.416;6.758;2023-06-22T13:46:54;23.60;99.90
74901;DHT22;63461;51.416;6.758;2023-06-22T13:49:20;23.60;99.90
74901;DHT22;63461;51.416;6.758;2023-06-22T13:51:47;23.70;99.90
74901;DHT22;63461;51.416;6.758;2023-06-22T13:54:14;24.10;99.90
74901;DHT22;63461;51.416;6.758;2023-06-22T13:56:39;24.00;99.90
74901;DHT22;63461;51.416;6.758;2023-06-22T13:59:05;24.10;99.90
74901;DHT22;63461;51.416;6.758;2023-06-22T14:01:37;24.00;99.90
74901;DHT22;63461;51.416;6.758;2023-06-22T14:04:05;24.00;99.90
74901;DHT22;63461;51.416;6.758;2023-06-22T14:06:31;24.10;99.90
74901;DHT22;63461;51.416;6.758;2023-06-22T14:08:57;24.20;99.90
74901;DHT22;63461;51.416;6.758;2023-06-22T14:11:23;24.40;99.90
74901;DHT22;63461;51.416;6.758;2023-06-22T14:13:48;24.20;99.90
74901;DHT22;63461;51.416;6.758;2023-06-22T14:16:14;24.20;99.90
74901;DHT22;63461;51.416;6.758;2023-06-22T14:18:40;24.10;99.90
74901;DHT22;63461;51.416;6.758;2023-06-22T14:21:06;24.10;99.90
74901;DHT22;63461;51.416;6.758;2023-06-22T14:23:31;23.90;99.90
74901;DHT22;63461;51.416;6.758;2023-06-22T14:25:57;23.80;99.90
74901;DHT22;63461;51.416;6.758;2023-06-22T14:28:23;23.80;99.90
74901;DHT22;63461;51.416;6.758;2023-06-22T14:30:49;23.80;99.90
74901;DHT22;63461;51.416;6.758;2023-06-22T14:33:15;23.90;99.90
74901;DHT22;63461;51.416;6.758;2023-06-22T14:35:40;23.70;99.90
74901;DHT22;63461;51.416;6.758;2023-06-22T14:38:06;23.60;99.90
74901;DHT22;63461;51.416;6.758;2023-06-22T14:40:32;23.70;99.90
74901;DHT22;63461;51.416;6.758;2023-06-22T14:42:58;23.70;99.90
74901;DHT22;63461;51.416;6.758;2023-06-22T14:45:24;23.60;99.90
74901;DHT22;63461;51.416;6.758;2023-06-22T14:47:50;23.50;99.90
74901;DHT22;63461;51.416;6.758;2023-06-22T14:50:16;23.40;99.90
74901;DHT22;63461;51.416;6.758;2023-06-22T14:52:41;23.50;99.90
74901;DHT22;63461;51.416;6.758;2023-06-22T14:55:07;23.40;99.90
74901;DHT22;63461;51.416;6.758;2023-06-22T14:57:33;23.20;99.90
74901;DHT22;63461;51.416;6.758;2023-06-22T14:59:59;23.20;99.90
74901;DHT22;63461;51.416;6.758;2023-06-22T15:02:27;23.30;99.90
74901;DHT22;63461;51.416;6.758;2023-06-22T15:04:53;23.20;99.90
74901;DHT22;63461;51.416;6.758;2023-06-22T15:07:19;23.10;99.90
74901;DHT22;63461;51.416;6.758;2023-06-22T15:09:46;23.00;99.90
74901;DHT22;63461;51.416;6.758;2023-06-22T15:12:12;23.10;99.90
74901;DHT22;63461;51.416;6.758;2023-06-22T15:14:40;23.00;99.90
74901;DHT22;63461;51.416;6.758;2023-06-22T15:17:06;23.00;99.90
74901;DHT22;63461;51.416;6.758;2023-06-22T15:19:37;23.10;99.90
74901;DHT22;63461;51.416;6.758;2023-06-22T15:22:06;22.90;99.90
74901;DHT22;63461;51.416;6.758;2023-06-22T15:24:33;22.90;99.90
74901;DHT22;63461;51.416;6.758;2023-06-22T15:27:00;23.00;99.90
74901;DHT22;63461;51.416;6.758;2023-06-22T15:29:26;23.10;99.90
74901;DHT22;63461;51.416;6.758;2023-06-22T15:31:52;23.00;99.90
74901;DHT22;63461;51.416;6.758;2023-06-22T15:34:18;23.00;99.90